sensor_id;sensor_type;location;lat;lon;timestamp;temperature;humidity
39983;DHT22;25670;44.782;10.356;2023-09-30T00:01:34;16.60;91.50
39983;DHT22;25670;44.782;10.356;2023-09-30T00:04:01;16.60;96.30
39983;DHT22;25670;44.782;10.356;2023-09-30T00:06:28;16.60;99.70
39983;DHT22;25670;44.782;10.356;2023-09-30T00:08:55;16.40;98.90
39983;DHT22;25670;44.782;10.356;2023-09-30T00:11:22;16.40;99.80
39983;DHT22;25670;44.782;10.356;2023-09-30T00:13:48;16.30;99.90
39983;DHT22;25670;44.782;10.356;2023-09-30T00:16:15;16.20;99.90
39983;DHT22;25670;44.782;10.356;2023-09-30T00:18:43;16.10;99.90
39983;DHT22;25670;44.782;10.356;2023-09-30T00:21:10;16.10;99.90
39983;DHT22;25670;44.782;10.356;2023-09-30T00:23:37;16.10;99.90
39983;DHT22;25670;44.782;10.356;2023-09-30T00:26:03;16.00;99.90
39983;DHT22;25670;44.782;10.356;2023-09-30T00:28:31;15.90;99.90
39983;DHT22;25670;44.782;10.356;2023-09-30T00:30:57;15.90;99.90
39983;DHT22;25670;44.782;10.356;2023-09-30T00:33:23;15.90;99.90
39983;DHT22;25670;44.782;10.356;2023-09-30T00:35:51;15.90;99.90
39983;DHT22;25670;44.782;10.356;2023-09-30T00:38:18;15.90;99.90
39983;DHT22;25670;44.782;10.356;2023-09-30T00:40:48;15.90;99.90
39983;DHT22;25670;44.782;10.356;2023-09-30T00:43:21;15.90;99.90
39983;DHT22;25670;44.782;10.356;2023-09-30T00:48:37;16.20;99.90
39983;DHT22;25670;44.782;10.356;2023-09-30T00:51:04;16.30;99.90
39983;DHT22;25670;44.782;10.356;2023-09-30T00:53:31;16.30;99.90
39983;DHT22;25670;44.782;10.356;2023-09-30T00:55:57;16.30;99.90
39983;DHT22;25670;44.782;10.356;2023-09-30T00:58:25;16.20;99.90
39983;DHT22;25670;44.782;10.356;2023-09-30T01:00:56;16.30;99.90
39983;DHT22;25670;44.782;10.356;2023-09-30T01:03:23;16.30;99.90
39983;DHT22;25670;44.782;10.356;2023-09-30T01:05:49;16.40;97.80
39983;DHT22;25670;44.782;10.356;2023-09-30T01:08:16;16.40;97.20
39983;DHT22;25670;44.782;10.356;2023-09-30T01:10:43;16.40;95.60
39983;DHT22;25670;44.782;10.356;2023-09-30T01:13:10;16.40;97.00
39983;DHT22;25670;44.782;10.356;2023-09-30T01:15:37;16.30;98.70
39983;DHT22;25670;44.782;10.356;2023-09-30T01:18:03;16.30;99.90
39983;DHT22;25670;44.782;10.356;2023-09-30T01:20:30;16.30;99.90
39983;DHT22;25670;44.782;10.356;2023-09-30T01:22:57;16.30;97.40
39983;DHT22;25670;44.782;10.356;2023-09-30T01:25:24;16.30;97.70
39983;DHT22;25670;44.782;10.356;2023-09-30T01:27:52;16.40;94.60
39983;DHT22;25670;44.782;10.356;2023-09-30T01:30:21;16.40;94.20
39983;DHT22;25670;44.782;10.356;2023-09-30T01:32:49;16.30;95.50
39983;DHT22;25670;44.782;10.356;2023-09-30T01:35:15;16.20;97.80
39983;DHT22;25670;44.782;10.356;2023-09-30T01:37:42;16.20;98.10
39983;DHT22;25670;44.782;10.356;2023-09-30T01:40:09;16.20;98.50
39983;DHT22;25670;44.782;10.356;2023-09-30T01:42:37;16.20;99.20
39983;DHT22;25670;44.782;10.356;2023-09-30T01:45:05;16.10;99.50
39983;DHT22;25670;44.782;10.356;2023-09-30T01:47:31;16.10;99.90
39983;DHT22;25670;44.782;10.356;2023-09-30T01:49:58;16.20;98.90
39983;DHT22;25670;44.782;10.356;2023-09-30T01:52:25;16.20;98.30
39983;DHT22;25670;44.782;10.356;2023-09-30T01:54:51;16.30;97.10
39983;DHT22;25670;44.782;10.356;2023-09-30T01:57:17;16.30;97.30
39983;DHT22;25670;44.782;10.356;2023-09-30T01:59:44;16.30;96.80
39983;DHT22;25670;44.782;10.356;2023-09-30T02:02:10;16.30;95.60
39983;DHT22;25670;44.782;10.356;2023-09-30T02:04:36;16.30;95.90
39983;DHT22;25670;44.782;10.356;2023-09-30T02:07:02;16.30;95.70
39983;DHT22;25670;44.782;10.356;2023-09-30T02:09:29;16.30;96.90
39983;DHT22;25670;44.782;10.356;2023-09-30T02:11:55;16.30;97.70
39983;DHT22;25670;44.782;10.356;2023-09-30T02:14:22;16.30;98.40
39983;DHT22;25670;44.782;10.356;2023-09-30T02:16:48;16.30;98.20
39983;DHT22;25670;44.782;10.356;2023-09-30T02:19:15;16.30;98.90
39983;DHT22;25670;44.782;10.356;2023-09-30T02:21:41;16.30;99.20
39983;DHT22;25670;44.782;10.356;2023-09-30T02:24:07;16.30;99.90
39983;DHT22;25670;44.782;10.356;2023-09-30T02:26:34;16.30;99.90
39983;DHT22;25670;44.782;10.356;2023-09-30T02:29:01;16.30;99.90
39983;DHT22;25670;44.782;10.356;2023-09-30T02:31:27;16.20;99.90
39983;DHT22;25670;44.782;10.356;2023-09-30T02:33:53;16.20;99.90
39983;DHT22;25670;44.782;10.356;2023-09-30T02:36:19;16.20;99.90
39983;DHT22;25670;44.782;10.356;2023-09-30T02:38:46;16.20;99.90
39983;DHT22;25670;44.782;10.356;2023-09-30T02:41:12;16.20;99.90
39983;DHT22;25670;44.782;10.356;2023-09-30T02:43:38;16.10;99.90
39983;DHT22;25670;44.782;10.356;2023-09-30T02:46:04;16.10;99.90
39983;DHT22;25670;44.782;10.356;2023-09-30T02:48:31;16.00;99.90
39983;DHT22;25670;44.782;10.356;2023-09-30T02:50:58;15.90;99.90
39983;DHT22;25670;44.782;10.356;2023-09-30T02:53:24;15.90;99.90
39983;DHT22;25670;44.782;10.356;2023-09-30T02:55:50;15.80;99.90
39983;DHT22;25670;44.782;10.356;2023-09-30T02:58:23;15.80;99.90
39983;DHT22;25670;44.782;10.356;2023-09-30T03:00:50;15.70;99.90
39983;DHT22;25670;44.782;10.356;2023-09-30T03:03:16;15.60;99.90
39983;DHT22;25670;44.782;10.356;2023-09-30T03:05:42;15.60;99.90
39983;DHT22;25670;44.782;10.356;2023-09-30T03:08:09;15.60;99.90
39983;DHT22;25670;44.782;10.356;2023-09-30T03:10:36;15.60;99.90
39983;DHT22;25670;44.782;10.356;2023-09-30T03:13:07;15.60;99.90
39983;DHT22;25670;44.782;10.356;2023-09-30T03:15:37;15.50;99.90
39983;DHT22;25670;44.782;10.356;2023-09-30T03:18:05;15.60;99.90
39983;DHT22;25670;44.782;10.356;2023-09-30T03:20:31;15.60;99.90
39983;DHT22;25670;44.782;10.356;2023-09-30T03:22:58;15.50;99.90
39983;DHT22;25670;44.782;10.356;2023-09-30T03:27:51;15.50;99.90
39983;DHT22;25670;44.782;10.356;2023-09-30T03:30:18;15.40;99.90
39983;DHT22;25670;44.782;10.356;2023-09-30T03:32:46;15.40;99.90
39983;DHT22;25670;44.782;10.356;2023-09-30T03:35:12;15.40;99.90
39983;DHT22;25670;44.782;10.356;2023-09-30T03:37:46;15.40;99.90
39983;DHT22;25670;44.782;10.356;2023-09-30T03:40:13;15.30;99.90
39983;DHT22;25670;44.782;10.356;2023-09-30T03:42:41;15.20;99.90
39983;DHT22;25670;44.782;10.356;2023-09-30T03:45:11;15.10;99.90
39983;DHT22;25670;44.782;10.356;2023-09-30T03:47:41;15.20;99.90
39983;DHT22;25670;44.782;10.356;2023-09-30T03:52:41;15.20;99.90
39983;DHT22;25670;44.782;10.356;2023-09-30T03:55:11;15.30;99.90
39983;DHT22;25670;44.782;10.356;2023-09-30T03:57:38;15.20;99.90
39983;DHT22;25670;44.782;10.356;2023-09-30T04:00:04;15.20;99.90
39983;DHT22;25670;44.782;10.356;2023-09-30T04:02:38;15.10;99.90
39983;DHT22;25670;44.782;10.356;2023-09-30T04:05:04;15.20;99.90
39983;DHT22;25670;44.782;10.356;2023-09-30T04:07:31;15.20;99.90
39983;DHT22;25670;44.782;10.356;2023-09-30T04:09:58;15.20;99.90
39983;DHT22;25670;44.782;10.356;2023-09-30T04:12:27;15.20;99.90
39983;DHT22;25670;44.782;10.356;2023-09-30T04:14:54;15.20;99.90
39983;DHT22;25670;44.782;10.356;2023-09-30T04:17:20;15.30;99.90
39983;DHT22;25670;44.782;10.356;2023-09-30T04:19:49;15.30;99.90
39983;DHT22;25670;44.782;10.356;2023-09-30T04:22:17;15.40;99.90
39983;DHT22;25670;44.782;10.356;2023-09-30T04:27:12;15.50;99.90
39983;DHT22;25670;44.782;10.356;2023-09-30T04:29:38;15.50;99.90
39983;DHT22;25670;44.782;10.356;2023-09-30T04:32:05;15.40;99.90
39983;DHT22;25670;44.782;10.356;2023-09-30T04:34:32;15.30;99.90
39983;DHT22;25670;44.782;10.356;2023-09-30T04:36:58;15.30;99.90
39983;DHT22;25670;44.782;10.356;2023-09-30T04:39:25;15.30;99.90
39983;DHT22;25670;44.782;10.356;2023-09-30T04:41:51;15.30;99.90
39983;DHT22;25670;44.782;10.356;2023-09-30T04:44:18;15.30;99.90
39983;DHT22;25670;44.782;10.356;2023-09-30T04:49:14;15.20;99.90
39983;DHT22;25670;44.782;10.356;2023-09-30T04:56:35;15.30;99.90
39983;DHT22;25670;44.782;10.356;2023-09-30T05:06:23;15.20;99.90
39983;DHT22;25670;44.782;10.356;2023-09-30T05:08:49;15.10;99.90
39983;DHT22;25670;44.782;10.356;2023-09-30T05:11:15;15.10;99.90
39983;DHT22;25670;44.782;10.356;2023-09-30T05:16:08;15.00;99.90
39983;DHT22;25670;44.782;10.356;2023-09-30T05:34:23;15.20;99.90
39983;DHT22;25670;44.782;10.356;2023-09-30T05:41:46;15.30;99.90
39983;DHT22;25670;44.782;10.356;2023-09-30T05:51:45;15.30;99.90
39983;DHT22;25670;44.782;10.356;2023-09-30T06:08:56;15.70;99.90
39983;DHT22;25670;44.782;10.356;2023-09-30T06:11:25;15.80;99.90
39983;DHT22;25670;44.782;10.356;2023-09-30T06:13:55;15.90;99.90
39983;DHT22;25670;44.782;10.356;2023-09-30T06:16:21;15.90;99.90
39983;DHT22;25670;44.782;10.356;2023-09-30T06:18:49;16.00;99.90
39983;DHT22;25670;44.782;10.356;2023-09-30T06:21:15;16.10;99.90
39983;DHT22;25670;44.782;10.356;2023-09-30T06:23:44;16.10;99.90
39983;DHT22;25670;44.782;10.356;2023-09-30T06:26:10;16.20;99.90
39983;DHT22;25670;44.782;10.356;2023-09-30T06:28:36;16.30;99.90
39983;DHT22;25670;44.782;10.356;2023-09-30T06:31:07;16.40;99.90
39983;DHT22;25670;44.782;10.356;2023-09-30T06:33:35;16.50;99.90
39983;DHT22;25670;44.782;10.356;2023-09-30T06:36:02;16.60;99.90
39983;DHT22;25670;44.782;10.356;2023-09-30T06:38:28;16.80;99.90
39983;DHT22;25670;44.782;10.356;2023-09-30T06:40:55;16.90;99.90
39983;DHT22;25670;44.782;10.356;2023-09-30T06:43:22;17.10;99.90
39983;DHT22;25670;44.782;10.356;2023-09-30T06:45:48;17.20;99.10
39983;DHT22;25670;44.782;10.356;2023-09-30T06:48:14;17.30;87.70
39983;DHT22;25670;44.782;10.356;2023-09-30T06:50:45;17.50;85.50
39983;DHT22;25670;44.782;10.356;2023-09-30T06:53:15;17.60;71.90
39983;DHT22;25670;44.782;10.356;2023-09-30T06:55:43;17.70;68.00
39983;DHT22;25670;44.782;10.356;2023-09-30T06:58:09;17.80;66.50
39983;DHT22;25670;44.782;10.356;2023-09-30T07:00:37;17.90;61.90
39983;DHT22;25670;44.782;10.356;2023-09-30T07:03:03;18.00;41.60
39983;DHT22;25670;44.782;10.356;2023-09-30T07:05:30;18.10;35.50
39983;DHT22;25670;44.782;10.356;2023-09-30T07:07:56;18.20;38.20
39983;DHT22;25670;44.782;10.356;2023-09-30T07:12:49;18.40;9.10
39983;DHT22;25670;44.782;10.356;2023-09-30T07:20:09;18.80;1.00
39983;DHT22;25670;44.782;10.356;2023-09-30T07:22:35;18.90;1.00
39983;DHT22;25670;44.782;10.356;2023-09-30T07:25:02;19.10;1.00
39983;DHT22;25670;44.782;10.356;2023-09-30T07:29:56;19.30;1.00
39983;DHT22;25670;44.782;10.356;2023-09-30T07:32:22;19.50;1.00
39983;DHT22;25670;44.782;10.356;2023-09-30T07:39:43;19.80;99.90
39983;DHT22;25670;44.782;10.356;2023-09-30T07:44:36;20.00;99.90
39983;DHT22;25670;44.782;10.356;2023-09-30T07:47:05;20.10;99.90
39983;DHT22;25670;44.782;10.356;2023-09-30T07:49:35;20.10;99.90
39983;DHT22;25670;44.782;10.356;2023-09-30T07:52:01;20.30;99.90
39983;DHT22;25670;44.782;10.356;2023-09-30T07:54:29;20.40;99.90
39983;DHT22;25670;44.782;10.356;2023-09-30T07:56:55;20.50;99.90
39983;DHT22;25670;44.782;10.356;2023-09-30T07:59:22;18.50;99.90
39983;DHT22;25670;44.782;10.356;2023-09-30T08:01:48;20.80;34.20
39983;DHT22;25670;44.782;10.356;2023-09-30T08:04:15;21.50;1.00
39983;DHT22;25670;44.782;10.356;2023-09-30T08:06:41;20.90;4.80
39983;DHT22;25670;44.782;10.356;2023-09-30T08:09:07;21.00;99.90
39983;DHT22;25670;44.782;10.356;2023-09-30T08:11:37;21.00;99.90
39983;DHT22;25670;44.782;10.356;2023-09-30T08:14:04;21.10;1.00
39983;DHT22;25670;44.782;10.356;2023-09-30T08:16:33;21.10;99.90
39983;DHT22;25670;44.782;10.356;2023-09-30T08:18:59;21.20;99.90
39983;DHT22;25670;44.782;10.356;2023-09-30T08:21:26;21.30;99.90
39983;DHT22;25670;44.782;10.356;2023-09-30T08:23:52;21.40;99.90
39983;DHT22;25670;44.782;10.356;2023-09-30T08:26:18;21.50;99.90
39983;DHT22;25670;44.782;10.356;2023-09-30T08:28:44;21.50;99.90
39983;DHT22;25670;44.782;10.356;2023-09-30T08:31:11;21.50;99.90
39983;DHT22;25670;44.782;10.356;2023-09-30T08:33:37;22.30;99.90
39983;DHT22;25670;44.782;10.356;2023-09-30T08:36:06;21.80;1.00
39983;DHT22;25670;44.782;10.356;2023-09-30T08:38:36;21.80;1.00
39983;DHT22;25670;44.782;10.356;2023-09-30T08:41:03;21.80;99.90
39983;DHT22;25670;44.782;10.356;2023-09-30T08:43:29;21.90;99.90
39983;DHT22;25670;44.782;10.356;2023-09-30T08:45:59;22.00;99.90
39983;DHT22;25670;44.782;10.356;2023-09-30T08:48:27;22.00;99.90
39983;DHT22;25670;44.782;10.356;2023-09-30T08:50:54;22.10;99.90
39983;DHT22;25670;44.782;10.356;2023-09-30T08:55:48;22.30;99.90
39983;DHT22;25670;44.782;10.356;2023-09-30T08:58:16;22.20;99.90
39983;DHT22;25670;44.782;10.356;2023-09-30T09:00:43;22.40;17.80
39983;DHT22;25670;44.782;10.356;2023-09-30T09:08:04;22.60;1.00
39983;DHT22;25670;44.782;10.356;2023-09-30T09:10:31;22.60;24.60
39983;DHT22;25670;44.782;10.356;2023-09-30T09:12:58;22.60;1.00
39983;DHT22;25670;44.782;10.356;2023-09-30T09:15:28;22.70;99.90
39983;DHT22;25670;44.782;10.356;2023-09-30T09:17:54;22.80;99.90
39983;DHT22;25670;44.782;10.356;2023-09-30T09:20:23;22.90;99.90
39983;DHT22;25670;44.782;10.356;2023-09-30T09:22:52;23.00;99.90
39983;DHT22;25670;44.782;10.356;2023-09-30T09:25:20;23.00;99.90
39983;DHT22;25670;44.782;10.356;2023-09-30T09:27:52;23.10;99.90
39983;DHT22;25670;44.782;10.356;2023-09-30T09:30:24;23.20;99.90
39983;DHT22;25670;44.782;10.356;2023-09-30T09:32:59;23.30;99.90
39983;DHT22;25670;44.782;10.356;2023-09-30T09:35:27;23.40;30.30
39983;DHT22;25670;44.782;10.356;2023-09-30T09:37:59;23.60;3.40
39983;DHT22;25670;44.782;10.356;2023-09-30T09:40:28;23.80;99.90
39983;DHT22;25670;44.782;10.356;2023-09-30T09:42:55;23.90;99.90
39983;DHT22;25670;44.782;10.356;2023-09-30T09:45:23;24.00;46.40
39983;DHT22;25670;44.782;10.356;2023-09-30T09:47:51;24.00;99.90
39983;DHT22;25670;44.782;10.356;2023-09-30T09:50:21;24.00;99.90
39983;DHT22;25670;44.782;10.356;2023-09-30T09:52:49;24.00;43.10
39983;DHT22;25670;44.782;10.356;2023-09-30T09:55:18;24.00;99.90
39983;DHT22;25670;44.782;10.356;2023-09-30T09:57:45;24.10;95.80
39983;DHT22;25670;44.782;10.356;2023-09-30T10:00:17;24.10;99.90
39983;DHT22;25670;44.782;10.356;2023-09-30T10:02:45;24.30;99.90
39983;DHT22;25670;44.782;10.356;2023-09-30T10:05:13;24.30;99.90
39983;DHT22;25670;44.782;10.356;2023-09-30T10:07:53;24.40;99.90
39983;DHT22;25670;44.782;10.356;2023-09-30T10:10:22;24.40;99.90
39983;DHT22;25670;44.782;10.356;2023-09-30T10:12:49;24.50;99.90
39983;DHT22;25670;44.782;10.356;2023-09-30T10:18:11;24.70;99.90
39983;DHT22;25670;44.782;10.356;2023-09-30T10:20:40;24.90;1.00
39983;DHT22;25670;44.782;10.356;2023-09-30T10:23:24;25.10;99.90
39983;DHT22;25670;44.782;10.356;2023-09-30T10:25:53;25.20;99.90
39983;DHT22;25670;44.782;10.356;2023-09-30T10:28:40;25.30;99.90
39983;DHT22;25670;44.782;10.356;2023-09-30T10:31:20;25.40;80.00
39983;DHT22;25670;44.782;10.356;2023-09-30T10:34:19;25.50;1.00
39983;DHT22;25670;44.782;10.356;2023-09-30T10:36:46;25.60;1.00
39983;DHT22;25670;44.782;10.356;2023-09-30T10:39:14;25.60;5.50
39983;DHT22;25670;44.782;10.356;2023-09-30T10:49:47;26.10;99.90
39983;DHT22;25670;44.782;10.356;2023-09-30T10:52:21;26.10;99.90
39983;DHT22;25670;44.782;10.356;2023-09-30T10:54:49;26.20;99.90
39983;DHT22;25670;44.782;10.356;2023-09-30T10:57:28;26.20;29.50
39983;DHT22;25670;44.782;10.356;2023-09-30T11:00:11;26.40;1.00
39983;DHT22;25670;44.782;10.356;2023-09-30T11:02:50;26.50;99.90
39983;DHT22;25670;44.782;10.356;2023-09-30T11:05:18;26.70;99.90
39983;DHT22;25670;44.782;10.356;2023-09-30T11:07:49;26.60;99.90
39983;DHT22;25670;44.782;10.356;2023-09-30T11:10:18;26.60;99.90
39983;DHT22;25670;44.782;10.356;2023-09-30T11:12:57;26.50;99.90
39983;DHT22;25670;44.782;10.356;2023-09-30T11:15:24;26.50;99.90
39983;DHT22;25670;44.782;10.356;2023-09-30T11:18:13;26.60;99.90
39983;DHT22;25670;44.782;10.356;2023-09-30T11:20:39;26.70;99.90
39983;DHT22;25670;44.782;10.356;2023-09-30T11:23:05;26.90;99.90
39983;DHT22;25670;44.782;10.356;2023-09-30T11:25:35;27.10;99.90
39983;DHT22;25670;44.782;10.356;2023-09-30T11:28:15;27.40;99.90
39983;DHT22;25670;44.782;10.356;2023-09-30T11:31:01;27.40;99.90
39983;DHT22;25670;44.782;10.356;2023-09-30T11:33:28;27.20;99.90
39983;DHT22;25670;44.782;10.356;2023-09-30T11:36:06;27.20;22.00
39983;DHT22;25670;44.782;10.356;2023-09-30T11:38:34;27.30;1.00
39983;DHT22;25670;44.782;10.356;2023-09-30T11:41:06;27.30;99.90
39983;DHT22;25670;44.782;10.356;2023-09-30T11:43:33;27.40;99.90
39983;DHT22;25670;44.782;10.356;2023-09-30T11:46:07;27.50;99.90
39983;DHT22;25670;44.782;10.356;2023-09-30T11:48:38;27.70;99.90
39983;DHT22;25670;44.782;10.356;2023-09-30T11:51:05;27.90;99.90
39983;DHT22;25670;44.782;10.356;2023-09-30T11:53:35;28.00;99.90
39983;DHT22;25670;44.782;10.356;2023-09-30T11:56:04;28.20;99.90
39983;DHT22;25670;44.782;10.356;2023-09-30T11:58:33;28.60;99.90
39983;DHT22;25670;44.782;10.356;2023-09-30T12:00:59;28.90;99.90
39983;DHT22;25670;44.782;10.356;2023-09-30T12:03:26;29.10;99.90
39983;DHT22;25670;44.782;10.356;2023-09-30T12:05:55;29.40;99.90
39983;DHT22;25670;44.782;10.356;2023-09-30T12:08:24;29.50;90.70
39983;DHT22;25670;44.782;10.356;2023-09-30T12:10:50;29.50;20.40
39983;DHT22;25670;44.782;10.356;2023-09-30T12:13:17;29.80;7.10
39983;DHT22;25670;44.782;10.356;2023-09-30T12:15:43;30.30;1.00
39983;DHT22;25670;44.782;10.356;2023-09-30T12:18:10;31.10;99.90
39983;DHT22;25670;44.782;10.356;2023-09-30T12:20:39;31.60;99.90
39983;DHT22;25670;44.782;10.356;2023-09-30T12:23:07;32.80;99.90
39983;DHT22;25670;44.782;10.356;2023-09-30T12:25:34;33.50;99.90
39983;DHT22;25670;44.782;10.356;2023-09-30T12:28:00;33.10;99.90
39983;DHT22;25670;44.782;10.356;2023-09-30T12:30:26;33.30;99.90
39983;DHT22;25670;44.782;10.356;2023-09-30T12:32:52;34.00;99.90
39983;DHT22;25670;44.782;10.356;2023-09-30T12:35:20;34.40;97.00
39983;DHT22;25670;44.782;10.356;2023-09-30T12:37:47;34.70;84.60
39983;DHT22;25670;44.782;10.356;2023-09-30T12:40:13;35.30;65.40
39983;DHT22;25670;44.782;10.356;2023-09-30T12:42:43;35.90;56.20
39983;DHT22;25670;44.782;10.356;2023-09-30T12:45:11;35.70;52.80
39983;DHT22;25670;44.782;10.356;2023-09-30T12:47:39;36.10;49.40
39983;DHT22;25670;44.782;10.356;2023-09-30T12:50:06;36.00;37.80
39983;DHT22;25670;44.782;10.356;2023-09-30T12:52:36;35.50;28.00
39983;DHT22;25670;44.782;10.356;2023-09-30T12:55:05;35.10;30.00
39983;DHT22;25670;44.782;10.356;2023-09-30T12:57:31;34.90;29.60
39983;DHT22;25670;44.782;10.356;2023-09-30T12:59:58;35.30;28.60
39983;DHT22;25670;44.782;10.356;2023-09-30T13:02:24;35.30;23.40
39983;DHT22;25670;44.782;10.356;2023-09-30T13:04:50;35.40;22.00
39983;DHT22;25670;44.782;10.356;2023-09-30T13:07:16;36.40;20.30
39983;DHT22;25670;44.782;10.356;2023-09-30T13:09:43;37.40;17.20
39983;DHT22;25670;44.782;10.356;2023-09-30T13:12:09;38.00;17.70
39983;DHT22;25670;44.782;10.356;2023-09-30T13:14:35;38.30;3.30
39983;DHT22;25670;44.782;10.356;2023-09-30T13:17:02;37.10;1.00
39983;DHT22;25670;44.782;10.356;2023-09-30T13:19:29;37.00;1.00
39983;DHT22;25670;44.782;10.356;2023-09-30T13:21:56;36.00;1.00
39983;DHT22;25670;44.782;10.356;2023-09-30T13:24:23;35.80;1.00
39983;DHT22;25670;44.782;10.356;2023-09-30T13:26:49;35.40;1.00
39983;DHT22;25670;44.782;10.356;2023-09-30T13:29:18;36.20;1.00
39983;DHT22;25670;44.782;10.356;2023-09-30T13:31:45;37.00;1.00
39983;DHT22;25670;44.782;10.356;2023-09-30T13:34:11;37.70;1.00
39983;DHT22;25670;44.782;10.356;2023-09-30T13:36:40;38.50;1.00
39983;DHT22;25670;44.782;10.356;2023-09-30T13:39:06;38.50;1.00
39983;DHT22;25670;44.782;10.356;2023-09-30T13:41:36;39.10;1.00
39983;DHT22;25670;44.782;10.356;2023-09-30T13:44:02;38.30;1.00
39983;DHT22;25670;44.782;10.356;2023-09-30T13:46:28;38.10;1.00
39983;DHT22;25670;44.782;10.356;2023-09-30T13:48:56;37.90;1.00
39983;DHT22;25670;44.782;10.356;2023-09-30T13:51:22;38.60;1.00
39983;DHT22;25670;44.782;10.356;2023-09-30T13:53:49;38.90;1.00
39983;DHT22;25670;44.782;10.356;2023-09-30T13:56:15;38.20;1.00
39983;DHT22;25670;44.782;10.356;2023-09-30T13:58:41;38.40;1.00
39983;DHT22;25670;44.782;10.356;2023-09-30T14:01:08;39.40;1.00
39983;DHT22;25670;44.782;10.356;2023-09-30T14:03:34;39.40;1.00
39983;DHT22;25670;44.782;10.356;2023-09-30T14:06:00;39.20;1.00
39983;DHT22;25670;44.782;10.356;2023-09-30T14:08:27;38.90;1.00
39983;DHT22;25670;44.782;10.356;2023-09-30T14:10:53;38.50;1.00
39983;DHT22;25670;44.782;10.356;2023-09-30T14:13:20;38.70;1.00
39983;DHT22;25670;44.782;10.356;2023-09-30T14:15:46;38.70;1.00
39983;DHT22;25670;44.782;10.356;2023-09-30T14:18:12;39.00;1.00
39983;DHT22;25670;44.782;10.356;2023-09-30T14:20:39;38.80;1.00
39983;DHT22;25670;44.782;10.356;2023-09-30T14:23:05;39.20;1.00
39983;DHT22;25670;44.782;10.356;2023-09-30T14:25:31;39.80;1.00
39983;DHT22;25670;44.782;10.356;2023-09-30T14:27:58;39.70;1.00
39983;DHT22;25670;44.782;10.356;2023-09-30T14:30:26;40.10;1.00
39983;DHT22;25670;44.782;10.356;2023-09-30T14:32:52;40.80;1.00
39983;DHT22;25670;44.782;10.356;2023-09-30T14:35:20;40.50;1.00
39983;DHT22;25670;44.782;10.356;2023-09-30T14:37:46;40.70;1.00
39983;DHT22;25670;44.782;10.356;2023-09-30T14:40:12;38.70;1.00
39983;DHT22;25670;44.782;10.356;2023-09-30T14:42:39;37.90;1.00
39983;DHT22;25670;44.782;10.356;2023-09-30T14:45:06;37.10;1.00
39983;DHT22;25670;44.782;10.356;2023-09-30T14:47:32;37.70;1.00
39983;DHT22;25670;44.782;10.356;2023-09-30T14:49:59;38.30;1.00
39983;DHT22;25670;44.782;10.356;2023-09-30T14:52:28;38.80;1.00
39983;DHT22;25670;44.782;10.356;2023-09-30T14:54:54;39.90;1.00
39983;DHT22;25670;44.782;10.356;2023-09-30T14:57:21;39.20;1.00
39983;DHT22;25670;44.782;10.356;2023-09-30T14:59:48;38.60;1.00
39983;DHT22;25670;44.782;10.356;2023-09-30T15:02:14;37.90;1.00
39983;DHT22;25670;44.782;10.356;2023-09-30T15:04:41;37.70;1.00
39983;DHT22;25670;44.782;10.356;2023-09-30T15:07:07;36.90;1.00
39983;DHT22;25670;44.782;10.356;2023-09-30T15:09:33;36.30;1.00
39983;DHT22;25670;44.782;10.356;2023-09-30T15:11:59;37.10;1.00
39983;DHT22;25670;44.782;10.356;2023-09-30T15:14:26;37.30;1.00
39983;DHT22;25670;44.782;10.356;2023-09-30T15:16:52;37.60;1.00
39983;DHT22;25670;44.782;10.356;2023-09-30T15:19:18;37.20;1.00
39983;DHT22;25670;44.782;10.356;2023-09-30T15:21:46;37.70;1.00
39983;DHT22;25670;44.782;10.356;2023-09-30T15:24:12;37.60;1.00
39983;DHT22;25670;44.782;10.356;2023-09-30T15:26:39;37.30;1.00
39983;DHT22;25670;44.782;10.356;2023-09-30T15:29:05;38.20;1.00
39983;DHT22;25670;44.782;10.356;2023-09-30T15:31:31;38.20;1.00
39983;DHT22;25670;44.782;10.356;2023-09-30T15:33:58;37.80;1.00
39983;DHT22;25670;44.782;10.356;2023-09-30T15:36:25;36.60;1.00
39983;DHT22;25670;44.782;10.356;2023-09-30T15:38:52;36.00;1.00
39983;DHT22;25670;44.782;10.356;2023-09-30T15:41:23;36.90;1.00
39983;DHT22;25670;44.782;10.356;2023-09-30T15:43:50;37.70;1.00
39983;DHT22;25670;44.782;10.356;2023-09-30T15:46:16;37.70;1.00
39983;DHT22;25670;44.782;10.356;2023-09-30T15:48:42;37.70;1.00
39983;DHT22;25670;44.782;10.356;2023-09-30T15:51:09;37.70;1.00
39983;DHT22;25670;44.782;10.356;2023-09-30T15:53:36;38.00;1.00
39983;DHT22;25670;44.782;10.356;2023-09-30T15:56:04;38.00;1.00
39983;DHT22;25670;44.782;10.356;2023-09-30T15:58:31;37.60;1.00
39983;DHT22;25670;44.782;10.356;2023-09-30T16:00:57;37.70;1.00
39983;DHT22;25670;44.782;10.356;2023-09-30T16:03:23;37.80;1.00
39983;DHT22;25670;44.782;10.356;2023-09-30T16:05:49;37.40;1.00
39983;DHT22;25670;44.782;10.356;2023-09-30T16:08:16;36.40;1.00
39983;DHT22;25670;44.782;10.356;2023-09-30T16:10:43;35.30;1.00
39983;DHT22;25670;44.782;10.356;2023-09-30T16:13:10;34.80;1.00
39983;DHT22;25670;44.782;10.356;2023-09-30T16:15:41;34.50;1.00
39983;DHT22;25670;44.782;10.356;2023-09-30T16:18:08;33.90;1.00
39983;DHT22;25670;44.782;10.356;2023-09-30T16:20:34;33.40;1.00
39983;DHT22;25670;44.782;10.356;2023-09-30T16:23:01;33.50;1.00
39983;DHT22;25670;44.782;10.356;2023-09-30T16:25:27;33.70;1.00
39983;DHT22;25670;44.782;10.356;2023-09-30T16:27:53;33.90;1.00
39983;DHT22;25670;44.782;10.356;2023-09-30T16:30:20;33.90;1.00
39983;DHT22;25670;44.782;10.356;2023-09-30T16:32:46;34.00;1.00
39983;DHT22;25670;44.782;10.356;2023-09-30T16:35:12;33.70;1.00
39983;DHT22;25670;44.782;10.356;2023-09-30T16:37:39;33.40;1.00
39983;DHT22;25670;44.782;10.356;2023-09-30T16:40:06;33.00;1.00
39983;DHT22;25670;44.782;10.356;2023-09-30T16:42:32;32.00;1.00
39983;DHT22;25670;44.782;10.356;2023-09-30T16:45:01;31.10;1.00
39983;DHT22;25670;44.782;10.356;2023-09-30T16:47:27;30.60;1.00
39983;DHT22;25670;44.782;10.356;2023-09-30T16:49:55;30.00;1.00
39983;DHT22;25670;44.782;10.356;2023-09-30T16:52:21;29.60;1.00
39983;DHT22;25670;44.782;10.356;2023-09-30T16:54:47;28.80;1.00
39983;DHT22;25670;44.782;10.356;2023-09-30T16:57:13;28.40;1.00
39983;DHT22;25670;44.782;10.356;2023-09-30T16:59:39;28.00;1.00
39983;DHT22;25670;44.782;10.356;2023-09-30T17:02:07;27.60;3.20
39983;DHT22;25670;44.782;10.356;2023-09-30T17:04:34;27.20;21.90
39983;DHT22;25670;44.782;10.356;2023-09-30T17:07:01;26.80;46.90
39983;DHT22;25670;44.782;10.356;2023-09-30T17:09:28;26.40;71.50